This is the latest recevied weather packets stored in our database for station/object M0TJX-1. If no packets are shown the sender has not sent any weather packets the latest 10 day(s).
| Time | Temp. | Humidity | Pressure | Rain* | Wind** | Luminosity | Snow |
|---|---|---|---|---|---|---|---|
| 1787932521 | 19.44° C | 72% | 1006.7 hPa | 0 mm | - | - | - |
| 1787931621 | 20° C | 72% | 1006.6 hPa | 0 mm | - | - | - |
| 1787930721 | 20.56° C | 75% | 1006.7 hPa | 0 mm | - | - | - |
| 1787929821 | 20.56° C | 76% | 1007 hPa | 0 mm | - | - | - |
| 1787928921 | 21.11° C | 74% | 1006.7 hPa | 0 mm | - | - | - |
| 1787928021 | 20.56° C | 75% | 1006.6 hPa | 0 mm | - | - | - |
| 1787927121 | 20.56° C | 78% | 1006.7 hPa | 0 mm | - | - | - |
| 1787926221 | 20° C | 85% | 1006.7 hPa | 0 mm | - | - | - |
| 1787925321 | 19.44° C | 88% | 1006.7 hPa | 0 mm | - | - | - |
| 1787924421 | 19.44° C | 84% | 1006.6 hPa | 0 mm | - | - | - |
| 1787923521 | 19.44° C | 84% | 1006.5 hPa | 0 mm | - | - | - |
| 1787922621 | 19.44° C | 88% | 1006.4 hPa | 0 mm | - | - | - |
| 1787921721 | 18.89° C | 89% | 1006.3 hPa | 0.25 mm | - | - | - |
| 1787920821 | 18.33° C | 89% | 1006.2 hPa | 1.02 mm | - | - | - |
| 1787919921 | 18.33° C | 91% | 1006.1 hPa | 1.02 mm | - | - | - |
| 1787919021 | 17.78° C | 92% | 1006.1 hPa | 1.27 mm | - | - | - |
| 1787918123 | 17.78° C | 90% | 1006.1 hPa | 1.02 mm | - | - | - |
| 1787917221 | 18.33° C | 91% | 1006.1 hPa | 1.78 mm | - | - | - |
| 1787916321 | 18.33° C | 92% | 1006.1 hPa | 2.03 mm | - | - | - |
| 1787915421 | 18.33° C | 93% | 1006 hPa | 1.78 mm | - | - | - |
| 1787914521 | 17.78° C | 90% | 1006 hPa | 1.78 mm | - | - | - |
| 1787913621 | 20° C | 81% | 1005.9 hPa | 0.25 mm | - | - | - |
| 1787912721 | 20° C | 77% | 1005.5 hPa | 0 mm | - | - | - |
| 1787911821 | 20° C | 80% | 1005.6 hPa | 0 mm | - | - | - |
| 1787910921 | 18.89° C | 85% | 1005.7 hPa | 0 mm | - | - | - |
* Rain latest hour (hover to see other rain measurements)
** Current wind speed in m/s (hover to see current wind gust speed)